sensor_id;sensor_type;location;lat;lon;timestamp;temperature;humidity
64198;SHT31;50512;53.666;9.700;2023-10-09T00:01:25;10.61;99.99
64198;SHT31;50512;53.666;9.700;2023-10-09T00:03:52;10.50;99.99
64198;SHT31;50512;53.666;9.700;2023-10-09T00:06:21;10.50;99.99
64198;SHT31;50512;53.666;9.700;2023-10-09T00:08:56;10.47;99.99
64198;SHT31;50512;53.666;9.700;2023-10-09T00:11:38;10.46;99.99
64198;SHT31;50512;53.666;9.700;2023-10-09T00:14:10;10.43;99.99
64198;SHT31;50512;53.666;9.700;2023-10-09T00:16:36;10.49;99.99
64198;SHT31;50512;53.666;9.700;2023-10-09T00:19:08;10.46;99.99
64198;SHT31;50512;53.666;9.700;2023-10-09T00:21:43;10.49;99.99
64198;SHT31;50512;53.666;9.700;2023-10-09T00:24:11;10.35;99.99
64198;SHT31;50512;53.666;9.700;2023-10-09T00:26:44;10.46;99.99
64198;SHT31;50512;53.666;9.700;2023-10-09T00:29:12;10.52;99.99
64198;SHT31;50512;53.666;9.700;2023-10-09T00:31:47;10.39;99.99
64198;SHT31;50512;53.666;9.700;2023-10-09T00:34:20;10.39;99.99
64198;SHT31;50512;53.666;9.700;2023-10-09T00:36:47;10.43;99.99
64198;SHT31;50512;53.666;9.700;2023-10-09T00:39:17;10.32;99.99
64198;SHT31;50512;53.666;9.700;2023-10-09T00:41:58;10.30;99.99
64198;SHT31;50512;53.666;9.700;2023-10-09T00:44:26;10.32;99.99
64198;SHT31;50512;53.666;9.700;2023-10-09T00:47:03;10.32;99.99
64198;SHT31;50512;53.666;9.700;2023-10-09T00:49:36;10.28;99.99
64198;SHT31;50512;53.666;9.700;2023-10-09T00:52:06;10.22;99.99
64198;SHT31;50512;53.666;9.700;2023-10-09T00:54:42;10.19;99.99
64198;SHT31;50512;53.666;9.700;2023-10-09T00:57:18;10.20;99.99
64198;SHT31;50512;53.666;9.700;2023-10-09T00:59:52;10.12;99.99
64198;SHT31;50512;53.666;9.700;2023-10-09T01:02:25;10.10;99.99
64198;SHT31;50512;53.666;9.700;2023-10-09T01:05:01;10.13;99.99
64198;SHT31;50512;53.666;9.700;2023-10-09T01:07:43;10.09;99.99
64198;SHT31;50512;53.666;9.700;2023-10-09T01:10:11;10.19;99.99
64198;SHT31;50512;53.666;9.700;2023-10-09T01:12:39;10.08;99.99
64198;SHT31;50512;53.666;9.700;2023-10-09T01:15:09;10.08;99.99
64198;SHT31;50512;53.666;9.700;2023-10-09T01:17:45;10.15;99.99
64198;SHT31;50512;53.666;9.700;2023-10-09T01:20:11;10.10;99.99
64198;SHT31;50512;53.666;9.700;2023-10-09T01:22:42;10.06;99.99
64198;SHT31;50512;53.666;9.700;2023-10-09T01:25:10;10.06;99.99
64198;SHT31;50512;53.666;9.700;2023-10-09T01:27:37;10.05;99.99
64198;SHT31;50512;53.666;9.700;2023-10-09T01:30:06;10.05;99.99
64198;SHT31;50512;53.666;9.700;2023-10-09T01:32:38;10.08;99.99
64198;SHT31;50512;53.666;9.700;2023-10-09T01:35:06;10.15;99.99
64198;SHT31;50512;53.666;9.700;2023-10-09T01:37:40;10.16;99.99
64198;SHT31;50512;53.666;9.700;2023-10-09T01:40:10;10.08;99.99
64198;SHT31;50512;53.666;9.700;2023-10-09T01:42:50;10.10;99.99
64198;SHT31;50512;53.666;9.700;2023-10-09T01:45:17;10.09;99.99
64198;SHT31;50512;53.666;9.700;2023-10-09T01:47:52;10.16;99.99
64198;SHT31;50512;53.666;9.700;2023-10-09T01:50:19;10.13;99.99
64198;SHT31;50512;53.666;9.700;2023-10-09T01:52:47;10.10;99.99
64198;SHT31;50512;53.666;9.700;2023-10-09T01:55:16;10.15;99.99
64198;SHT31;50512;53.666;9.700;2023-10-09T01:57:54;10.06;99.99
64198;SHT31;50512;53.666;9.700;2023-10-09T02:00:23;10.12;99.99
64198;SHT31;50512;53.666;9.700;2023-10-09T02:02:54;10.19;99.99
64198;SHT31;50512;53.666;9.700;2023-10-09T02:05:20;10.22;99.99
64198;SHT31;50512;53.666;9.700;2023-10-09T02:07:51;10.28;99.99
64198;SHT31;50512;53.666;9.700;2023-10-09T02:10:20;10.19;99.99
64198;SHT31;50512;53.666;9.700;2023-10-09T02:12:58;10.32;99.99
64198;SHT31;50512;53.666;9.700;2023-10-09T02:15:31;10.35;99.99
64198;SHT31;50512;53.666;9.700;2023-10-09T02:18:12;10.36;99.99
64198;SHT31;50512;53.666;9.700;2023-10-09T02:20:52;10.22;99.99
64198;SHT31;50512;53.666;9.700;2023-10-09T02:23:26;10.32;99.99
64198;SHT31;50512;53.666;9.700;2023-10-09T02:26:05;10.18;99.99
64198;SHT31;50512;53.666;9.700;2023-10-09T02:28:34;10.25;99.99
64198;SHT31;50512;53.666;9.700;2023-10-09T02:31:01;10.29;99.99
64198;SHT31;50512;53.666;9.700;2023-10-09T02:33:47;10.29;99.99
64198;SHT31;50512;53.666;9.700;2023-10-09T02:36:14;10.16;99.99
64198;SHT31;50512;53.666;9.700;2023-10-09T02:38:40;10.09;99.99
64198;SHT31;50512;53.666;9.700;2023-10-09T02:41:09;10.16;99.99
64198;SHT31;50512;53.666;9.700;2023-10-09T02:43:46;10.06;99.99
64198;SHT31;50512;53.666;9.700;2023-10-09T02:46:13;10.10;99.99
64198;SHT31;50512;53.666;9.700;2023-10-09T02:48:43;10.12;99.99
64198;SHT31;50512;53.666;9.700;2023-10-09T02:51:12;10.19;99.99
64198;SHT31;50512;53.666;9.700;2023-10-09T02:53:47;10.15;99.99
64198;SHT31;50512;53.666;9.700;2023-10-09T02:56:16;10.19;99.99
64198;SHT31;50512;53.666;9.700;2023-10-09T02:58:49;10.16;99.99
64198;SHT31;50512;53.666;9.700;2023-10-09T03:01:15;10.08;99.99
64198;SHT31;50512;53.666;9.700;2023-10-09T03:03:42;10.10;99.99
64198;SHT31;50512;53.666;9.700;2023-10-09T03:06:11;10.03;99.99
64198;SHT31;50512;53.666;9.700;2023-10-09T03:08:38;9.98;99.99
64198;SHT31;50512;53.666;9.700;2023-10-09T03:11:06;9.91;99.99
64198;SHT31;50512;53.666;9.700;2023-10-09T03:13:40;10.02;99.99
64198;SHT31;50512;53.666;9.700;2023-10-09T03:16:08;9.94;99.99
64198;SHT31;50512;53.666;9.700;2023-10-09T03:18:37;9.97;99.99
64198;SHT31;50512;53.666;9.700;2023-10-09T03:21:04;9.85;99.99
64198;SHT31;50512;53.666;9.700;2023-10-09T03:23:31;9.85;99.99
64198;SHT31;50512;53.666;9.700;2023-10-09T03:25:59;9.80;99.99
64198;SHT31;50512;53.666;9.700;2023-10-09T03:28:26;9.84;99.99
64198;SHT31;50512;53.666;9.700;2023-10-09T03:30:53;9.82;99.99
64198;SHT31;50512;53.666;9.700;2023-10-09T03:33:20;9.82;99.99
64198;SHT31;50512;53.666;9.700;2023-10-09T03:35:48;9.81;99.99
64198;SHT31;50512;53.666;9.700;2023-10-09T03:38:16;9.87;99.99
64198;SHT31;50512;53.666;9.700;2023-10-09T03:40:44;9.84;99.99
64198;SHT31;50512;53.666;9.700;2023-10-09T03:43:13;9.81;99.99
64198;SHT31;50512;53.666;9.700;2023-10-09T03:45:40;9.77;99.99
64198;SHT31;50512;53.666;9.700;2023-10-09T03:48:16;9.84;99.99
64198;SHT31;50512;53.666;9.700;2023-10-09T03:50:47;9.84;99.99
64198;SHT31;50512;53.666;9.700;2023-10-09T03:53:14;9.78;99.99
64198;SHT31;50512;53.666;9.700;2023-10-09T03:55:40;9.78;99.99
64198;SHT31;50512;53.666;9.700;2023-10-09T03:58:07;9.85;99.99
64198;SHT31;50512;53.666;9.700;2023-10-09T04:00:37;9.77;99.99
64198;SHT31;50512;53.666;9.700;2023-10-09T04:03:10;9.75;99.99
64198;SHT31;50512;53.666;9.700;2023-10-09T04:05:38;9.80;99.99
64198;SHT31;50512;53.666;9.700;2023-10-09T04:08:07;9.77;99.99
64198;SHT31;50512;53.666;9.700;2023-10-09T04:10:39;9.77;99.99
64198;SHT31;50512;53.666;9.700;2023-10-09T04:13:17;9.81;99.99
64198;SHT31;50512;53.666;9.700;2023-10-09T04:15:49;9.80;99.99
64198;SHT31;50512;53.666;9.700;2023-10-09T04:18:17;9.78;99.99
64198;SHT31;50512;53.666;9.700;2023-10-09T04:20:54;9.74;99.99
64198;SHT31;50512;53.666;9.700;2023-10-09T04:23:38;9.73;99.99
64198;SHT31;50512;53.666;9.700;2023-10-09T04:26:19;9.70;99.99
64198;SHT31;50512;53.666;9.700;2023-10-09T04:28:46;9.67;99.99
64198;SHT31;50512;53.666;9.700;2023-10-09T04:31:16;9.73;99.99
64198;SHT31;50512;53.666;9.700;2023-10-09T04:33:44;9.71;99.99
64198;SHT31;50512;53.666;9.700;2023-10-09T04:36:20;9.71;99.99
64198;SHT31;50512;53.666;9.700;2023-10-09T04:38:54;9.69;99.99
64198;SHT31;50512;53.666;9.700;2023-10-09T04:41:41;9.69;99.99
64198;SHT31;50512;53.666;9.700;2023-10-09T04:44:18;9.70;99.99
64198;SHT31;50512;53.666;9.700;2023-10-09T04:46:44;9.67;99.99
64198;SHT31;50512;53.666;9.700;2023-10-09T04:49:31;9.70;99.99
64198;SHT31;50512;53.666;9.700;2023-10-09T04:52:07;9.73;99.99
64198;SHT31;50512;53.666;9.700;2023-10-09T04:54:43;9.70;99.99
64198;SHT31;50512;53.666;9.700;2023-10-09T04:57:29;9.69;99.99
64198;SHT31;50512;53.666;9.700;2023-10-09T05:00:04;9.70;99.99
64198;SHT31;50512;53.666;9.700;2023-10-09T05:02:47;9.70;99.99
64198;SHT31;50512;53.666;9.700;2023-10-09T05:05:20;9.69;99.99
64198;SHT31;50512;53.666;9.700;2023-10-09T05:08:15;9.70;99.99
64198;SHT31;50512;53.666;9.700;2023-10-09T05:10:45;9.67;99.99
64198;SHT31;50512;53.666;9.700;2023-10-09T05:13:26;9.71;99.99
64198;SHT31;50512;53.666;9.700;2023-10-09T05:16:09;9.73;99.99
64198;SHT31;50512;53.666;9.700;2023-10-09T05:18:44;9.74;99.99
64198;SHT31;50512;53.666;9.700;2023-10-09T05:21:21;9.63;99.99
64198;SHT31;50512;53.666;9.700;2023-10-09T05:24:12;9.54;99.73
64198;SHT31;50512;53.666;9.700;2023-10-09T05:26:49;9.60;99.99
64198;SHT31;50512;53.666;9.700;2023-10-09T05:29:19;9.58;99.99
64198;SHT31;50512;53.666;9.700;2023-10-09T05:32:00;9.54;99.99
64198;SHT31;50512;53.666;9.700;2023-10-09T05:34:30;9.48;99.99
64198;SHT31;50512;53.666;9.700;2023-10-09T05:37:00;9.54;99.99
64198;SHT31;50512;53.666;9.700;2023-10-09T05:39:43;9.50;99.99
64198;SHT31;50512;53.666;9.700;2023-10-09T05:42:23;9.46;99.99
64198;SHT31;50512;53.666;9.700;2023-10-09T05:44:53;9.43;99.99
64198;SHT31;50512;53.666;9.700;2023-10-09T05:47:37;9.37;99.99
64198;SHT31;50512;53.666;9.700;2023-10-09T05:50:09;9.43;99.99
64198;SHT31;50512;53.666;9.700;2023-10-09T05:53:00;9.43;99.99
64198;SHT31;50512;53.666;9.700;2023-10-09T05:55:53;9.44;99.99
64198;SHT31;50512;53.666;9.700;2023-10-09T05:58:48;9.43;99.99
64198;SHT31;50512;53.666;9.700;2023-10-09T06:01:29;9.40;99.99
64198;SHT31;50512;53.666;9.700;2023-10-09T06:04:13;9.37;99.99
64198;SHT31;50512;53.666;9.700;2023-10-09T06:06:42;9.42;99.99
64198;SHT31;50512;53.666;9.700;2023-10-09T06:09:12;9.40;99.99
64198;SHT31;50512;53.666;9.700;2023-10-09T06:11:58;9.40;99.99
64198;SHT31;50512;53.666;9.700;2023-10-09T06:14:42;9.39;99.99
64198;SHT31;50512;53.666;9.700;2023-10-09T06:17:43;9.47;99.99
64198;SHT31;50512;53.666;9.700;2023-10-09T06:20:10;9.39;99.99
64198;SHT31;50512;53.666;9.700;2023-10-09T06:22:50;9.39;99.99
64198;SHT31;50512;53.666;9.700;2023-10-09T06:25:23;9.32;99.99
64198;SHT31;50512;53.666;9.700;2023-10-09T06:27:59;9.30;99.99
64198;SHT31;50512;53.666;9.700;2023-10-09T06:30:26;9.40;99.99
64198;SHT31;50512;53.666;9.700;2023-10-09T06:32:54;9.46;99.99
64198;SHT31;50512;53.666;9.700;2023-10-09T06:35:40;9.42;99.99
64198;SHT31;50512;53.666;9.700;2023-10-09T06:38:18;9.43;99.99
64198;SHT31;50512;53.666;9.700;2023-10-09T06:40:48;9.40;99.99
64198;SHT31;50512;53.666;9.700;2023-10-09T06:43:34;9.40;99.99
64198;SHT31;50512;53.666;9.700;2023-10-09T06:46:14;9.40;99.99
64198;SHT31;50512;53.666;9.700;2023-10-09T06:49:09;9.46;99.99
64198;SHT31;50512;53.666;9.700;2023-10-09T06:51:49;9.50;99.99
64198;SHT31;50512;53.666;9.700;2023-10-09T06:54:20;9.43;99.99
64198;SHT31;50512;53.666;9.700;2023-10-09T06:56:51;9.43;99.99
64198;SHT31;50512;53.666;9.700;2023-10-09T06:59:38;9.40;99.99
64198;SHT31;50512;53.666;9.700;2023-10-09T07:02:28;9.43;99.99
64198;SHT31;50512;53.666;9.700;2023-10-09T07:04:56;9.37;99.99
64198;SHT31;50512;53.666;9.700;2023-10-09T07:07:35;9.51;99.99
64198;SHT31;50512;53.666;9.700;2023-10-09T07:10:07;9.47;99.99
64198;SHT31;50512;53.666;9.700;2023-10-09T07:12:51;9.51;99.99
64198;SHT31;50512;53.666;9.700;2023-10-09T07:15:21;9.48;99.99
64198;SHT31;50512;53.666;9.700;2023-10-09T07:18:02;9.44;99.99
64198;SHT31;50512;53.666;9.700;2023-10-09T07:20:44;9.53;99.99
64198;SHT31;50512;53.666;9.700;2023-10-09T07:23:24;9.57;99.99
64198;SHT31;50512;53.666;9.700;2023-10-09T07:26:01;9.64;99.99
64198;SHT31;50512;53.666;9.700;2023-10-09T07:28:42;9.60;99.99
64198;SHT31;50512;53.666;9.700;2023-10-09T07:31:18;9.65;99.99
64198;SHT31;50512;53.666;9.700;2023-10-09T07:33:52;9.67;99.99
64198;SHT31;50512;53.666;9.700;2023-10-09T07:36:23;9.78;99.99
64198;SHT31;50512;53.666;9.700;2023-10-09T07:39:00;9.84;99.99
64198;SHT31;50512;53.666;9.700;2023-10-09T07:41:31;10.29;99.99
64198;SHT31;50512;53.666;9.700;2023-10-09T07:44:05;10.56;99.99
64198;SHT31;50512;53.666;9.700;2023-10-09T07:47:01;10.13;99.99
64198;SHT31;50512;53.666;9.700;2023-10-09T07:49:42;9.87;99.99
64198;SHT31;50512;53.666;9.700;2023-10-09T07:52:14;9.88;99.99
64198;SHT31;50512;53.666;9.700;2023-10-09T07:54:40;9.97;99.99
64198;SHT31;50512;53.666;9.700;2023-10-09T07:57:15;10.01;99.99
64198;SHT31;50512;53.666;9.700;2023-10-09T07:59:42;10.03;99.99
64198;SHT31;50512;53.666;9.700;2023-10-09T08:02:21;10.15;99.99
64198;SHT31;50512;53.666;9.700;2023-10-09T08:04:57;10.20;99.99
64198;SHT31;50512;53.666;9.700;2023-10-09T08:07:29;10.23;99.99
64198;SHT31;50512;53.666;9.700;2023-10-09T08:10:00;10.20;99.99
64198;SHT31;50512;53.666;9.700;2023-10-09T08:12:44;10.13;99.99
64198;SHT31;50512;53.666;9.700;2023-10-09T08:15:46;10.08;99.99
64198;SHT31;50512;53.666;9.700;2023-10-09T08:18:19;10.18;99.99
64198;SHT31;50512;53.666;9.700;2023-10-09T08:20:53;10.23;99.99
64198;SHT31;50512;53.666;9.700;2023-10-09T08:23:34;10.35;99.99
64198;SHT31;50512;53.666;9.700;2023-10-09T08:26:13;10.32;99.99
64198;SHT31;50512;53.666;9.700;2023-10-09T08:28:40;10.26;99.99
64198;SHT31;50512;53.666;9.700;2023-10-09T08:31:09;10.36;99.99
64198;SHT31;50512;53.666;9.700;2023-10-09T08:33:46;10.43;99.99
64198;SHT31;50512;53.666;9.700;2023-10-09T08:36:22;10.30;99.99
64198;SHT31;50512;53.666;9.700;2023-10-09T08:38:49;10.36;99.99
64198;SHT31;50512;53.666;9.700;2023-10-09T08:41:17;10.42;99.99
64198;SHT31;50512;53.666;9.700;2023-10-09T08:43:48;10.47;99.99
64198;SHT31;50512;53.666;9.700;2023-10-09T08:46:18;10.50;99.99
64198;SHT31;50512;53.666;9.700;2023-10-09T08:48:48;10.46;99.99
64198;SHT31;50512;53.666;9.700;2023-10-09T08:51:16;10.60;99.99
64198;SHT31;50512;53.666;9.700;2023-10-09T08:53:43;10.50;99.99
64198;SHT31;50512;53.666;9.700;2023-10-09T08:56:11;10.57;99.99
64198;SHT31;50512;53.666;9.700;2023-10-09T08:58:40;10.54;99.99
64198;SHT31;50512;53.666;9.700;2023-10-09T09:01:06;10.54;99.99
64198;SHT31;50512;53.666;9.700;2023-10-09T09:03:41;10.71;99.99
64198;SHT31;50512;53.666;9.700;2023-10-09T09:06:10;10.67;99.99
64198;SHT31;50512;53.666;9.700;2023-10-09T09:08:37;10.70;99.99
64198;SHT31;50512;53.666;9.700;2023-10-09T09:11:11;10.67;99.99
64198;SHT31;50512;53.666;9.700;2023-10-09T09:13:40;10.73;99.99
64198;SHT31;50512;53.666;9.700;2023-10-09T09:16:18;10.75;99.99
64198;SHT31;50512;53.666;9.700;2023-10-09T09:18:56;10.85;99.99
64198;SHT31;50512;53.666;9.700;2023-10-09T09:21:27;10.90;99.99
64198;SHT31;50512;53.666;9.700;2023-10-09T09:23:56;10.88;99.99
64198;SHT31;50512;53.666;9.700;2023-10-09T09:26:37;10.95;99.99
64198;SHT31;50512;53.666;9.700;2023-10-09T09:29:10;10.98;99.99
64198;SHT31;50512;53.666;9.700;2023-10-09T09:31:37;10.95;99.99
64198;SHT31;50512;53.666;9.700;2023-10-09T09:34:05;10.95;99.99
64198;SHT31;50512;53.666;9.700;2023-10-09T09:36:50;11.01;99.99
64198;SHT31;50512;53.666;9.700;2023-10-09T09:39:23;10.98;99.99
64198;SHT31;50512;53.666;9.700;2023-10-09T09:41:55;10.94;99.99
64198;SHT31;50512;53.666;9.700;2023-10-09T09:44:22;10.98;99.99
64198;SHT31;50512;53.666;9.700;2023-10-09T09:46:51;11.01;99.99
64198;SHT31;50512;53.666;9.700;2023-10-09T09:49:20;11.02;99.99
64198;SHT31;50512;53.666;9.700;2023-10-09T09:51:50;11.01;99.99
64198;SHT31;50512;53.666;9.700;2023-10-09T09:54:16;11.11;99.99
64198;SHT31;50512;53.666;9.700;2023-10-09T09:56:48;11.08;99.99
64198;SHT31;50512;53.666;9.700;2023-10-09T09:59:17;11.05;99.99
64198;SHT31;50512;53.666;9.700;2023-10-09T10:01:49;10.99;99.99
64198;SHT31;50512;53.666;9.700;2023-10-09T10:04:24;11.11;99.99
64198;SHT31;50512;53.666;9.700;2023-10-09T10:06:54;11.12;99.99
64198;SHT31;50512;53.666;9.700;2023-10-09T10:09:35;11.18;99.99
64198;SHT31;50512;53.666;9.700;2023-10-09T10:12:04;11.19;99.99
64198;SHT31;50512;53.666;9.700;2023-10-09T10:14:51;11.30;99.99
64198;SHT31;50512;53.666;9.700;2023-10-09T10:17:22;11.32;99.99
64198;SHT31;50512;53.666;9.700;2023-10-09T10:20:03;11.35;99.99
64198;SHT31;50512;53.666;9.700;2023-10-09T10:22:49;11.36;99.99
64198;SHT31;50512;53.666;9.700;2023-10-09T10:25:32;11.46;99.99
64198;SHT31;50512;53.666;9.700;2023-10-09T10:28:19;11.46;99.99
64198;SHT31;50512;53.666;9.700;2023-10-09T10:31:04;11.44;99.99
64198;SHT31;50512;53.666;9.700;2023-10-09T10:34:03;11.50;99.99
64198;SHT31;50512;53.666;9.700;2023-10-09T10:36:32;11.54;99.99
64198;SHT31;50512;53.666;9.700;2023-10-09T10:39:02;11.62;99.99
64198;SHT31;50512;53.666;9.700;2023-10-09T10:41:32;11.67;99.99
64198;SHT31;50512;53.666;9.700;2023-10-09T10:44:02;11.75;99.99
64198;SHT31;50512;53.666;9.700;2023-10-09T10:46:49;11.78;99.99
64198;SHT31;50512;53.666;9.700;2023-10-09T10:49:19;11.88;99.99
64198;SHT31;50512;53.666;9.700;2023-10-09T10:51:47;11.85;99.99
64198;SHT31;50512;53.666;9.700;2023-10-09T10:54:23;11.88;99.99
64198;SHT31;50512;53.666;9.700;2023-10-09T10:57:18;11.77;99.99
64198;SHT31;50512;53.666;9.700;2023-10-09T10:59:56;11.88;99.99
64198;SHT31;50512;53.666;9.700;2023-10-09T11:02:41;11.91;99.99
64198;SHT31;50512;53.666;9.700;2023-10-09T11:05:07;11.97;99.99
64198;SHT31;50512;53.666;9.700;2023-10-09T11:07:51;11.95;99.99
64198;SHT31;50512;53.666;9.700;2023-10-09T11:10:23;11.98;99.99
64198;SHT31;50512;53.666;9.700;2023-10-09T11:12:54;11.95;99.99
64198;SHT31;50512;53.666;9.700;2023-10-09T11:15:35;12.05;99.99
64198;SHT31;50512;53.666;9.700;2023-10-09T11:18:10;12.14;99.99
64198;SHT31;50512;53.666;9.700;2023-10-09T11:20:43;12.14;99.99
64198;SHT31;50512;53.666;9.700;2023-10-09T11:23:22;12.18;99.99
64198;SHT31;50512;53.666;9.700;2023-10-09T11:25:56;12.21;99.99
64198;SHT31;50512;53.666;9.700;2023-10-09T11:28:43;12.30;99.99
64198;SHT31;50512;53.666;9.700;2023-10-09T11:31:15;12.24;99.99
64198;SHT31;50512;53.666;9.700;2023-10-09T11:33:44;12.24;99.99
64198;SHT31;50512;53.666;9.700;2023-10-09T11:36:13;12.30;99.99
64198;SHT31;50512;53.666;9.700;2023-10-09T11:38:39;12.42;99.99
64198;SHT31;50512;53.666;9.700;2023-10-09T11:41:15;12.40;99.99
64198;SHT31;50512;53.666;9.700;2023-10-09T11:43:49;12.36;99.99
64198;SHT31;50512;53.666;9.700;2023-10-09T11:46:19;12.42;99.99
64198;SHT31;50512;53.666;9.700;2023-10-09T11:49:07;12.40;99.99
64198;SHT31;50512;53.666;9.700;2023-10-09T11:51:51;12.42;99.99
64198;SHT31;50512;53.666;9.700;2023-10-09T11:54:50;12.33;99.99
64198;SHT31;50512;53.666;9.700;2023-10-09T11:57:23;12.43;99.99
64198;SHT31;50512;53.666;9.700;2023-10-09T11:59:56;12.46;99.99
64198;SHT31;50512;53.666;9.700;2023-10-09T12:02:22;12.53;99.99
64198;SHT31;50512;53.666;9.700;2023-10-09T12:04:48;12.53;99.99
64198;SHT31;50512;53.666;9.700;2023-10-09T12:07:15;12.66;99.99
64198;SHT31;50512;53.666;9.700;2023-10-09T12:09:45;12.64;99.99
64198;SHT31;50512;53.666;9.700;2023-10-09T12:12:13;12.68;99.99
64198;SHT31;50512;53.666;9.700;2023-10-09T12:14:40;12.56;99.99
64198;SHT31;50512;53.666;9.700;2023-10-09T12:17:08;12.74;99.99
64198;SHT31;50512;53.666;9.700;2023-10-09T12:19:35;12.84;99.99
64198;SHT31;50512;53.666;9.700;2023-10-09T12:22:03;12.92;99.99
64198;SHT31;50512;53.666;9.700;2023-10-09T12:24:30;12.76;99.99
64198;SHT31;50512;53.666;9.700;2023-10-09T12:26:58;12.90;99.99
64198;SHT31;50512;53.666;9.700;2023-10-09T12:29:25;12.91;99.99
64198;SHT31;50512;53.666;9.700;2023-10-09T12:31:56;12.90;99.99
64198;SHT31;50512;53.666;9.700;2023-10-09T12:34:24;12.94;99.99
64198;SHT31;50512;53.666;9.700;2023-10-09T12:36:52;13.00;99.99
64198;SHT31;50512;53.666;9.700;2023-10-09T12:39:18;13.04;99.99
64198;SHT31;50512;53.666;9.700;2023-10-09T12:41:45;13.02;99.99
64198;SHT31;50512;53.666;9.700;2023-10-09T12:44:11;13.10;99.99
64198;SHT31;50512;53.666;9.700;2023-10-09T12:46:40;13.02;99.99
64198;SHT31;50512;53.666;9.700;2023-10-09T12:49:08;12.91;99.99
64198;SHT31;50512;53.666;9.700;2023-10-09T12:51:35;12.95;99.99
64198;SHT31;50512;53.666;9.700;2023-10-09T12:54:02;13.02;99.99
64198;SHT31;50512;53.666;9.700;2023-10-09T12:56:28;13.00;99.99
64198;SHT31;50512;53.666;9.700;2023-10-09T12:59:02;12.97;99.99
64198;SHT31;50512;53.666;9.700;2023-10-09T13:01:30;12.98;99.99
64198;SHT31;50512;53.666;9.700;2023-10-09T13:03:57;13.02;99.99
64198;SHT31;50512;53.666;9.700;2023-10-09T13:06:26;13.07;99.99
64198;SHT31;50512;53.666;9.700;2023-10-09T13:08:53;13.12;99.99
64198;SHT31;50512;53.666;9.700;2023-10-09T13:11:24;13.12;99.99
64198;SHT31;50512;53.666;9.700;2023-10-09T13:13:51;13.04;99.99
64198;SHT31;50512;53.666;9.700;2023-10-09T13:16:18;13.05;99.99
64198;SHT31;50512;53.666;9.700;2023-10-09T13:18:48;13.15;99.99
64198;SHT31;50512;53.666;9.700;2023-10-09T13:21:17;13.22;99.99
64198;SHT31;50512;53.666;9.700;2023-10-09T13:23:44;13.15;99.99
64198;SHT31;50512;53.666;9.700;2023-10-09T13:26:13;13.21;99.99
64198;SHT31;50512;53.666;9.700;2023-10-09T13:28:50;13.28;99.99
64198;SHT31;50512;53.666;9.700;2023-10-09T13:31:17;13.25;99.99
64198;SHT31;50512;53.666;9.700;2023-10-09T13:33:46;13.28;99.99
64198;SHT31;50512;53.666;9.700;2023-10-09T13:36:14;13.19;99.99
64198;SHT31;50512;53.666;9.700;2023-10-09T13:38:46;13.38;99.99
64198;SHT31;50512;53.666;9.700;2023-10-09T13:41:12;13.46;99.99
64198;SHT31;50512;53.666;9.700;2023-10-09T13:43:40;13.47;99.99
64198;SHT31;50512;53.666;9.700;2023-10-09T13:46:08;13.57;99.99
64198;SHT31;50512;53.666;9.700;2023-10-09T13:48:35;13.60;99.99
64198;SHT31;50512;53.666;9.700;2023-10-09T13:51:03;13.70;99.99
64198;SHT31;50512;53.666;9.700;2023-10-09T13:53:32;13.70;99.99
64198;SHT31;50512;53.666;9.700;2023-10-09T13:56:02;13.83;99.99
64198;SHT31;50512;53.666;9.700;2023-10-09T13:58:32;13.90;99.99
64198;SHT31;50512;53.666;9.700;2023-10-09T14:00:59;13.97;99.99
64198;SHT31;50512;53.666;9.700;2023-10-09T14:03:26;13.97;99.99
64198;SHT31;50512;53.666;9.700;2023-10-09T14:05:52;13.97;99.99
64198;SHT31;50512;53.666;9.700;2023-10-09T14:08:22;14.07;99.99
64198;SHT31;50512;53.666;9.700;2023-10-09T14:10:49;14.12;99.99
64198;SHT31;50512;53.666;9.700;2023-10-09T14:13:17;14.11;99.99
64198;SHT31;50512;53.666;9.700;2023-10-09T14:15:51;14.15;99.99
64198;SHT31;50512;53.666;9.700;2023-10-09T14:18:20;14.11;99.99
64198;SHT31;50512;53.666;9.700;2023-10-09T14:20:46;14.19;99.99
64198;SHT31;50512;53.666;9.700;2023-10-09T14:23:12;14.28;99.99
64198;SHT31;50512;53.666;9.700;2023-10-09T14:25:46;14.33;99.99
64198;SHT31;50512;53.666;9.700;2023-10-09T14:28:16;14.32;99.99
64198;SHT31;50512;53.666;9.700;2023-10-09T14:30:44;14.33;99.99
64198;SHT31;50512;53.666;9.700;2023-10-09T14:33:14;14.43;99.99
64198;SHT31;50512;53.666;9.700;2023-10-09T14:35:48;14.57;99.99
64198;SHT31;50512;53.666;9.700;2023-10-09T14:38:15;14.65;99.99
64198;SHT31;50512;53.666;9.700;2023-10-09T14:40:45;14.74;99.99
64198;SHT31;50512;53.666;9.700;2023-10-09T14:43:13;14.77;99.99
64198;SHT31;50512;53.666;9.700;2023-10-09T14:45:46;14.83;99.99
64198;SHT31;50512;53.666;9.700;2023-10-09T14:48:14;14.81;99.99
64198;SHT31;50512;53.666;9.700;2023-10-09T14:50:46;14.90;99.99
64198;SHT31;50512;53.666;9.700;2023-10-09T14:53:13;14.91;99.99
64198;SHT31;50512;53.666;9.700;2023-10-09T14:55:40;14.94;99.99
64198;SHT31;50512;53.666;9.700;2023-10-09T14:58:10;14.95;99.99
64198;SHT31;50512;53.666;9.700;2023-10-09T15:00:37;14.98;99.99
64198;SHT31;50512;53.666;9.700;2023-10-09T15:03:05;14.97;99.99
64198;SHT31;50512;53.666;9.700;2023-10-09T15:05:37;14.97;99.99
64198;SHT31;50512;53.666;9.700;2023-10-09T15:08:03;15.04;99.99
64198;SHT31;50512;53.666;9.700;2023-10-09T15:10:36;15.03;99.99
64198;SHT31;50512;53.666;9.700;2023-10-09T15:13:03;15.05;99.99
64198;SHT31;50512;53.666;9.700;2023-10-09T15:15:30;15.08;99.99
64198;SHT31;50512;53.666;9.700;2023-10-09T15:17:56;15.12;99.99
64198;SHT31;50512;53.666;9.700;2023-10-09T15:20:25;15.18;99.99
64198;SHT31;50512;53.666;9.700;2023-10-09T15:22:52;15.18;99.99
64198;SHT31;50512;53.666;9.700;2023-10-09T15:25:18;15.25;99.99
64198;SHT31;50512;53.666;9.700;2023-10-09T15:27:45;15.24;99.99
64198;SHT31;50512;53.666;9.700;2023-10-09T15:30:11;15.27;99.99
64198;SHT31;50512;53.666;9.700;2023-10-09T15:32:39;15.22;99.99
64198;SHT31;50512;53.666;9.700;2023-10-09T15:35:06;15.24;99.99
64198;SHT31;50512;53.666;9.700;2023-10-09T15:37:36;15.32;99.99
64198;SHT31;50512;53.666;9.700;2023-10-09T15:40:04;15.32;99.99
64198;SHT31;50512;53.666;9.700;2023-10-09T15:42:39;15.32;99.99
64198;SHT31;50512;53.666;9.700;2023-10-09T15:45:06;15.38;99.99
64198;SHT31;50512;53.666;9.700;2023-10-09T15:47:34;15.38;99.99
64198;SHT31;50512;53.666;9.700;2023-10-09T15:50:02;15.36;99.99
64198;SHT31;50512;53.666;9.700;2023-10-09T15:52:28;15.36;99.99
64198;SHT31;50512;53.666;9.700;2023-10-09T15:54:56;15.36;99.99
64198;SHT31;50512;53.666;9.700;2023-10-09T15:57:23;15.34;99.99
64198;SHT31;50512;53.666;9.700;2023-10-09T15:59:49;15.28;99.99
64198;SHT31;50512;53.666;9.700;2023-10-09T16:02:16;15.31;99.99
64198;SHT31;50512;53.666;9.700;2023-10-09T16:04:43;15.32;99.99
64198;SHT31;50512;53.666;9.700;2023-10-09T16:07:10;15.28;99.99
64198;SHT31;50512;53.666;9.700;2023-10-09T16:09:36;15.27;99.99